createdAt,value
2018-04-06T00:00:19.758Z,1.87
2018-04-06T00:01:19.760Z,1.77
2018-04-06T00:02:19.738Z,1.70
2018-04-06T00:03:19.930Z,1.60
2018-04-06T00:04:19.721Z,1.59
2018-04-06T00:05:19.712Z,1.50
2018-04-06T00:06:19.917Z,1.53
2018-04-06T00:07:19.716Z,1.56
2018-04-06T00:08:19.690Z,1.55
2018-04-06T00:09:19.882Z,1.58
2018-04-06T00:10:19.674Z,1.59
2018-04-06T00:11:19.884Z,1.62
2018-04-06T00:12:19.880Z,1.50
2018-04-06T00:13:19.852Z,1.52
2018-04-06T00:14:19.846Z,1.56
2018-04-06T00:15:19.845Z,1.63
2018-04-06T00:16:19.628Z,1.58
2018-04-06T00:17:19.622Z,1.63
2018-04-06T00:18:19.814Z,1.68
2018-04-06T00:19:19.807Z,1.68
2018-04-06T00:20:19.798Z,1.78
2018-04-06T00:21:19.587Z,1.84
2018-04-06T00:22:19.783Z,1.80
2018-04-06T00:23:19.587Z,1.77
2018-04-06T00:24:19.565Z,1.85
2018-04-06T00:25:19.560Z,1.92
2018-04-06T00:26:19.553Z,1.99
2018-04-06T00:27:19.543Z,2.06
2018-04-06T00:28:19.742Z,2.00
2018-04-06T00:29:19.732Z,1.95
2018-04-06T00:30:19.756Z,1.92
2018-04-06T00:31:19.519Z,1.92
2018-04-06T00:32:19.537Z,1.92
2018-04-06T00:33:19.498Z,2.06
2018-04-06T00:34:19.490Z,1.94
2018-04-06T00:35:19.689Z,1.94
2018-04-06T00:36:19.685Z,2.04
2018-04-06T00:37:19.479Z,2.18
2018-04-06T00:38:19.664Z,2.14
2018-04-06T00:39:19.463Z,2.18
2018-04-06T00:40:19.446Z,2.08
2018-04-06T00:41:19.439Z,2.22
2018-04-06T00:42:19.450Z,2.17
2018-04-06T00:43:19.424Z,2.20
2018-04-06T00:44:19.432Z,2.13
2018-04-06T00:45:19.417Z,2.17
2018-04-06T00:46:19.400Z,2.13
2018-04-06T00:47:19.405Z,2.15
2018-04-06T00:48:19.400Z,2.26
2018-04-06T00:49:19.381Z,2.20
2018-04-06T00:50:19.385Z,2.25
2018-04-06T00:51:19.377Z,2.39
2018-04-06T00:52:19.360Z,2.36
2018-04-06T00:53:19.351Z,2.38
2018-04-06T00:54:19.346Z,2.38
2018-04-06T00:55:19.336Z,2.26
2018-04-06T00:56:19.330Z,2.29
2018-04-06T00:57:19.525Z,2.26
2018-04-06T00:58:19.316Z,2.28
2018-04-06T00:59:19.520Z,2.26
2018-04-06T01:00:19.319Z,2.24
2018-04-06T01:01:19.294Z,2.28
2018-04-06T01:02:19.287Z,2.25
2018-04-06T01:03:19.282Z,2.22
2018-04-06T01:04:19.277Z,2.29
2018-04-06T01:05:19.265Z,2.28
2018-04-06T01:06:19.276Z,2.26
2018-04-06T01:07:19.254Z,2.25
2018-04-06T01:08:19.245Z,2.28
2018-04-06T01:09:19.250Z,2.31
2018-04-06T01:10:19.234Z,2.14
2018-04-06T01:11:19.426Z,2.15
2018-04-06T01:12:19.219Z,2.28
2018-04-06T01:13:19.221Z,2.13
2018-04-06T01:14:19.203Z,2.17
2018-04-06T01:15:19.196Z,2.08
2018-04-06T01:16:19.403Z,2.17
2018-04-06T01:17:19.193Z,2.17
2018-04-06T01:18:19.171Z,2.22
2018-04-06T01:19:19.368Z,2.24
2018-04-06T01:20:19.156Z,2.18
2018-04-06T01:21:19.178Z,2.15
2018-04-06T01:22:19.154Z,2.22
2018-04-06T01:23:19.339Z,2.25
2018-04-06T01:24:19.125Z,2.25
2018-04-06T01:25:19.128Z,2.18
2018-04-06T01:26:19.128Z,2.17
2018-04-06T01:27:19.118Z,2.13
2018-04-06T01:28:19.124Z,1.94
2018-04-06T01:29:19.301Z,2.07
2018-04-06T01:30:19.082Z,1.94
2018-04-06T01:31:19.092Z,1.89
2018-04-06T01:32:19.066Z,1.84
2018-04-06T01:33:19.058Z,1.78
2018-04-06T01:34:19.056Z,1.77
2018-04-06T01:35:19.046Z,1.87
2018-04-06T01:36:19.037Z,1.80
2018-04-06T01:37:19.246Z,1.88
2018-04-06T01:38:19.020Z,1.94
2018-04-06T01:39:19.219Z,1.87
2018-04-06T01:40:19.211Z,1.97
2018-04-06T01:41:19.010Z,1.78
2018-04-06T01:42:19.195Z,1.80
2018-04-06T01:43:18.984Z,1.78
2018-04-06T01:44:19.180Z,1.88
2018-04-06T01:45:18.969Z,1.91
2018-04-06T01:46:18.964Z,1.88
2018-04-06T01:47:18.954Z,1.91
2018-04-06T01:48:19.149Z,1.92
2018-04-06T01:49:18.936Z,1.92
2018-04-06T01:50:19.134Z,1.97
2018-04-06T01:51:18.924Z,1.99
2018-04-06T01:52:18.928Z,2.13
2018-04-06T01:53:18.907Z,2.14
2018-04-06T01:54:19.103Z,2.04
2018-04-06T01:55:19.097Z,1.97
2018-04-06T01:56:18.905Z,1.91
2018-04-06T01:57:18.882Z,1.87
2018-04-06T01:58:18.885Z,1.92
2018-04-06T01:59:18.878Z,1.94
2018-04-06T02:00:18.869Z,1.88
2018-04-06T02:01:19.051Z,1.81
2018-04-06T02:02:18.844Z,1.81
2018-04-06T02:03:18.831Z,1.88
2018-04-06T02:04:19.027Z,1.81
2018-04-06T02:05:19.029Z,1.70
2018-04-06T02:06:19.022Z,1.63
2018-04-06T02:07:18.803Z,1.63
2018-04-06T02:08:18.996Z,1.58
2018-04-06T02:09:18.787Z,1.56
2018-04-06T02:10:18.781Z,1.58
2018-04-06T02:11:18.973Z,1.66
2018-04-06T02:12:18.776Z,1.63
2018-04-06T02:13:18.755Z,1.50
2018-04-06T02:14:18.758Z,1.42
2018-04-06T02:15:18.771Z,1.55
2018-04-06T02:16:18.732Z,1.49
2018-04-06T02:17:18.940Z,1.44
2018-04-06T02:18:18.720Z,1.48
2018-04-06T02:19:18.712Z,1.49
2018-04-06T02:20:18.935Z,1.45
2018-04-06T02:21:18.896Z,1.53
2018-04-06T02:22:18.687Z,1.49
2018-04-06T02:23:18.884Z,1.49
2018-04-06T02:24:18.875Z,1.50
2018-04-06T02:25:18.660Z,1.55
2018-04-06T02:26:18.670Z,1.53
2018-04-06T02:27:18.646Z,1.59
2018-04-06T02:28:18.650Z,1.63
2018-04-06T02:29:18.630Z,1.52
2018-04-06T02:30:18.629Z,1.52
2018-04-06T02:31:18.619Z,1.50
2018-04-06T02:32:18.826Z,1.48
2018-04-06T02:33:18.604Z,1.49
2018-04-06T02:34:18.593Z,1.45
2018-04-06T02:35:18.599Z,1.55
2018-04-06T02:36:18.781Z,1.48
2018-04-06T02:37:18.571Z,1.49
2018-04-06T02:38:18.578Z,1.49
2018-04-06T02:39:18.759Z,1.52
2018-04-06T02:40:18.549Z,1.42
2018-04-06T02:41:18.538Z,1.41
2018-04-06T02:42:18.543Z,1.34
2018-04-06T02:43:18.534Z,1.37
2018-04-06T02:44:18.523Z,1.31
2018-04-06T02:45:18.509Z,1.19
2018-04-06T02:46:18.500Z,1.23
2018-04-06T02:47:18.491Z,1.32
2018-04-06T02:48:18.498Z,1.28
2018-04-06T02:49:18.487Z,1.24
2018-04-06T02:50:18.471Z,1.19
2018-04-06T02:51:18.478Z,1.17
2018-04-06T02:52:18.455Z,1.19
2018-04-06T02:53:18.470Z,1.16
2018-04-06T02:54:18.642Z,1.17
2018-04-06T02:55:18.430Z,1.13
2018-04-06T02:56:18.422Z,1.17
2018-04-06T02:57:18.416Z,1.14
2018-04-06T02:58:18.404Z,1.19
2018-04-06T02:59:18.403Z,1.30
2018-04-06T03:00:18.595Z,1.28
2018-04-06T03:01:18.380Z,1.22
2018-04-06T03:02:18.371Z,1.22
2018-04-06T03:03:18.569Z,1.23
2018-04-06T03:04:18.376Z,1.30
2018-04-06T03:05:18.354Z,1.34
2018-04-06T03:06:18.341Z,1.22
2018-04-06T03:07:18.536Z,1.34
2018-04-06T03:08:18.325Z,1.32
2018-04-06T03:09:18.332Z,1.31
2018-04-06T03:10:18.308Z,1.31
2018-04-06T03:11:18.317Z,1.23
2018-04-06T03:12:18.296Z,1.14
2018-04-06T03:13:18.299Z,1.13
2018-04-06T03:14:18.492Z,1.05
2018-04-06T03:15:18.475Z,1.02
2018-04-06T03:16:18.293Z,0.99
2018-04-06T03:17:18.470Z,0.92
2018-04-06T03:18:18.259Z,1.01
2018-04-06T03:19:18.238Z,1.01
2018-04-06T03:20:18.435Z,1.01
2018-04-06T03:21:18.440Z,1.02
2018-04-06T03:22:18.213Z,0.99
2018-04-06T03:23:18.204Z,1.13
2018-04-06T03:24:18.199Z,1.01
2018-04-06T03:25:18.404Z,1.04
2018-04-06T03:26:18.386Z,1.02
2018-04-06T03:27:18.172Z,1.04
2018-04-06T03:28:18.176Z,1.08
2018-04-06T03:29:18.157Z,1.13
2018-04-06T03:30:18.165Z,1.24
2018-04-06T03:31:18.141Z,1.34
2018-04-06T03:32:18.130Z,1.32
2018-04-06T03:33:18.125Z,1.45
2018-04-06T03:34:18.119Z,1.52
2018-04-06T03:35:18.121Z,1.55
2018-04-06T03:36:18.318Z,1.60
2018-04-06T03:37:18.295Z,1.56
2018-04-06T03:38:18.286Z,1.62
2018-04-06T03:39:18.086Z,1.62
2018-04-06T03:40:18.066Z,1.49
2018-04-06T03:41:18.059Z,1.44
2018-04-06T03:42:18.254Z,1.34
2018-04-06T03:43:18.048Z,1.30
2018-04-06T03:44:18.055Z,1.31
2018-04-06T03:45:18.231Z,1.14
2018-04-06T03:46:18.019Z,1.02
2018-04-06T03:47:18.012Z,0.95
2018-04-06T03:48:18.004Z,0.74
2018-04-06T03:49:17.996Z,0.81
2018-04-06T03:50:18.206Z,0.84
2018-04-06T03:51:18.182Z,0.78
2018-04-06T03:52:17.984Z,0.69
2018-04-06T03:53:18.165Z,0.70
2018-04-06T03:54:17.964Z,0.73
2018-04-06T03:55:17.958Z,0.60
2018-04-06T03:56:17.950Z,0.73
2018-04-06T03:57:17.931Z,0.66
2018-04-06T03:58:17.933Z,0.63
2018-04-06T03:59:17.928Z,0.59
2018-04-06T04:00:18.118Z,0.63
2018-04-06T04:01:17.897Z,0.56
2018-04-06T04:02:17.899Z,0.52
2018-04-06T04:03:17.893Z,0.58
2018-04-06T04:04:17.873Z,0.46
2018-04-06T04:05:18.091Z,0.60
2018-04-06T04:06:17.869Z,0.55
2018-04-06T04:07:17.872Z,0.50
2018-04-06T04:08:17.853Z,0.55
2018-04-06T04:09:18.043Z,0.60
2018-04-06T04:10:17.823Z,0.56
2018-04-06T04:11:17.814Z,0.58
2018-04-06T04:12:17.834Z,0.59
2018-04-06T04:13:17.808Z,0.58
2018-04-06T04:14:17.791Z,0.50
2018-04-06T04:15:17.781Z,0.62
2018-04-06T04:16:17.976Z,0.65
2018-04-06T04:17:17.764Z,0.55
2018-04-06T04:18:17.758Z,0.62
2018-04-06T04:19:17.748Z,0.59
2018-04-06T04:20:17.741Z,0.62
2018-04-06T04:21:17.937Z,0.59
2018-04-06T04:22:17.722Z,0.50
2018-04-06T04:23:17.742Z,0.58
2018-04-06T04:24:17.738Z,0.58
2018-04-06T04:25:17.701Z,0.62
2018-04-06T04:26:17.701Z,0.59
2018-04-06T04:27:17.684Z,0.58
2018-04-06T04:28:17.675Z,0.49
2018-04-06T04:29:17.665Z,0.32
2018-04-06T04:30:17.656Z,0.32
2018-04-06T04:31:17.650Z,0.29
2018-04-06T04:32:17.642Z,0.26
2018-04-06T04:33:17.634Z,0.28
2018-04-06T04:34:17.640Z,0.37
2018-04-06T04:35:17.615Z,0.36
2018-04-06T04:36:17.611Z,0.23
2018-04-06T04:37:17.600Z,0.07
2018-04-06T04:38:17.595Z,0.07
2018-04-06T04:39:17.586Z,0.11
2018-04-06T04:40:17.575Z,0.10
2018-04-06T04:41:17.593Z,0.12
2018-04-06T04:42:17.556Z,0.19
2018-04-06T04:43:17.550Z,0.21
2018-04-06T04:44:17.540Z,0.28
2018-04-06T04:45:17.531Z,0.28
2018-04-06T04:46:17.539Z,0.36
2018-04-06T04:47:17.529Z,0.34
2018-04-06T04:48:17.520Z,0.32
2018-04-06T04:49:17.503Z,0.37
2018-04-06T04:50:17.506Z,0.31
2018-04-06T04:51:17.516Z,0.34
2018-04-06T04:52:17.479Z,0.31
2018-04-06T04:53:17.469Z,0.25
2018-04-06T04:54:17.485Z,0.29
2018-04-06T04:55:17.461Z,0.31
2018-04-06T04:56:17.439Z,0.29
2018-04-06T04:57:17.429Z,0.34
2018-04-06T04:58:17.431Z,0.25
2018-04-06T04:59:17.412Z,0.05
2018-04-06T05:00:17.608Z,0.08
2018-04-06T05:01:17.393Z,0.11
2018-04-06T05:02:17.401Z,0.08
2018-04-06T05:03:17.381Z,0.21
2018-04-06T05:04:17.386Z,0.21
2018-04-06T05:05:17.362Z,0.26
2018-04-06T05:06:17.353Z,0.41
2018-04-06T05:07:17.344Z,0.36
2018-04-06T05:08:17.353Z,0.37
2018-04-06T05:09:17.340Z,0.44
2018-04-06T05:10:17.320Z,0.49
2018-04-06T05:11:17.310Z,0.58
2018-04-06T05:12:17.323Z,0.62
2018-04-06T05:13:17.304Z,0.58
2018-04-06T05:14:17.310Z,0.63
2018-04-06T05:15:17.276Z,0.69
2018-04-06T05:16:17.276Z,0.81
2018-04-06T05:17:17.262Z,0.76
2018-04-06T05:18:17.252Z,0.78
2018-04-06T05:19:17.244Z,0.91
2018-04-06T05:20:17.235Z,0.94
2018-04-06T05:21:17.238Z,0.91
2018-04-06T05:22:17.218Z,0.98
2018-04-06T05:23:17.224Z,1.01
2018-04-06T05:24:17.213Z,1.01
2018-04-06T05:25:17.408Z,1.04
2018-04-06T05:26:17.407Z,1.16
2018-04-06T05:27:17.192Z,1.16
2018-04-06T05:28:17.384Z,1.13
2018-04-06T05:29:17.163Z,1.10
2018-04-06T05:30:17.167Z,1.06
2018-04-06T05:31:17.160Z,1.01
2018-04-06T05:32:17.149Z,1.02
2018-04-06T05:33:17.146Z,0.88
2018-04-06T05:34:17.154Z,0.87
2018-04-06T05:35:17.142Z,0.88
2018-04-06T05:36:17.312Z,0.84
2018-04-06T05:37:17.097Z,0.81
2018-04-06T05:38:17.117Z,0.80
2018-04-06T05:39:17.095Z,0.86
2018-04-06T05:40:17.084Z,0.99
2018-04-06T05:41:17.088Z,1.04
2018-04-06T05:42:17.068Z,0.99
2018-04-06T05:43:17.059Z,0.99
2018-04-06T05:44:17.042Z,0.94
2018-04-06T05:45:17.042Z,0.83
2018-04-06T05:46:17.023Z,0.84
2018-04-06T05:47:17.241Z,0.84
2018-04-06T05:48:17.007Z,0.74
2018-04-06T05:49:17.006Z,0.77
2018-04-06T05:50:17.192Z,0.78
2018-04-06T05:51:17.194Z,0.80
2018-04-06T05:52:17.188Z,0.88
2018-04-06T05:53:16.977Z,0.94
2018-04-06T05:54:16.981Z,0.95
2018-04-06T05:55:16.954Z,1.02
2018-04-06T05:56:16.952Z,1.06
2018-04-06T05:57:16.941Z,1.13
2018-04-06T05:58:16.933Z,1.16
2018-04-06T05:59:17.118Z,1.10
2018-04-06T06:00:16.908Z,1.30
2018-04-06T06:01:16.901Z,1.30
2018-04-06T06:02:16.886Z,1.30
2018-04-06T06:03:16.893Z,1.35
2018-04-06T06:04:16.872Z,1.32
2018-04-06T06:05:16.873Z,1.32
2018-04-06T06:06:17.062Z,1.48
2018-04-06T06:07:16.860Z,1.48
2018-04-06T06:08:16.840Z,1.67
2018-04-06T06:09:16.830Z,1.94
2018-04-06T06:10:16.819Z,2.15
2018-04-06T06:11:17.033Z,2.35
2018-04-06T06:12:17.009Z,2.35
2018-04-06T06:13:16.806Z,2.35
2018-04-06T06:14:16.787Z,2.49
2018-04-06T06:15:16.782Z,2.65
2018-04-06T06:16:16.783Z,2.74
2018-04-06T06:17:16.765Z,2.97
2018-04-06T06:18:16.755Z,3.07
2018-04-06T06:19:16.759Z,3.34
2018-04-06T06:20:16.773Z,3.53
2018-04-06T06:21:16.761Z,3.73
2018-04-06T06:22:16.954Z,3.94
2018-04-06T06:23:16.747Z,4.14
2018-04-06T06:24:16.707Z,4.31
2018-04-06T06:25:16.720Z,4.35
2018-04-06T06:26:16.716Z,4.45
2018-04-06T06:27:16.691Z,4.70
2018-04-06T06:28:16.677Z,4.74
2018-04-06T06:29:16.669Z,4.89
2018-04-06T06:30:16.670Z,4.89
2018-04-06T06:31:16.655Z,5.02
2018-04-06T06:32:16.673Z,5.08
2018-04-06T06:33:16.644Z,5.12
2018-04-06T06:34:16.633Z,5.28
2018-04-06T06:35:16.639Z,5.38
2018-04-06T06:36:16.632Z,5.36
2018-04-06T06:37:16.644Z,5.43
2018-04-06T06:38:16.627Z,5.41
2018-04-06T06:39:16.639Z,5.46
2018-04-06T06:40:16.586Z,5.61
2018-04-06T06:41:16.588Z,5.64
2018-04-06T06:42:16.584Z,5.65
2018-04-06T06:43:16.562Z,5.72
2018-04-06T06:44:16.594Z,5.82
2018-04-06T06:45:16.545Z,5.93
2018-04-06T06:46:16.550Z,5.98
2018-04-06T06:47:16.742Z,6.22
2018-04-06T06:48:16.535Z,6.36
2018-04-06T06:49:16.520Z,6.56
2018-04-06T06:50:16.533Z,6.84
2018-04-06T06:51:16.535Z,7.11
2018-04-06T06:52:16.527Z,7.38
2018-04-06T06:53:16.519Z,7.48
2018-04-06T06:54:16.538Z,7.82
2018-04-06T06:55:16.498Z,8.16
2018-04-06T06:56:16.491Z,8.23
2018-04-06T06:57:16.515Z,8.38
2018-04-06T06:58:16.494Z,8.67
2018-04-06T06:59:16.516Z,8.73
2018-04-06T07:00:16.487Z,8.55
2018-04-06T07:01:16.479Z,8.60
2018-04-06T07:02:16.464Z,8.61
2018-04-06T07:03:16.443Z,8.53
2018-04-06T07:04:16.451Z,8.73
2018-04-06T07:05:16.449Z,8.88
2018-04-06T07:06:16.453Z,9.22
2018-04-06T07:07:16.423Z,9.13
2018-04-06T07:08:16.473Z,8.99
2018-04-06T07:09:16.469Z,9.02
2018-04-06T07:10:16.456Z,9.03
2018-04-06T07:11:16.477Z,9.21
2018-04-06T07:12:16.439Z,9.23
2018-04-06T07:13:16.406Z,9.21
2018-04-06T07:14:16.444Z,9.41
2018-04-06T07:15:16.387Z,9.46
2018-04-06T07:16:16.403Z,9.47
2018-04-06T07:17:16.379Z,9.47
2018-04-06T07:18:16.398Z,9.68
2018-04-06T07:19:16.378Z,9.46
2018-04-06T07:20:16.346Z,9.74
2018-04-06T07:21:16.377Z,9.73
2018-04-06T07:22:16.368Z,9.64
2018-04-06T07:23:16.365Z,9.94
2018-04-06T07:24:16.348Z,9.73
2018-04-06T07:25:16.349Z,9.83
2018-04-06T07:26:16.346Z,9.95
2018-04-06T07:27:16.337Z,10.15
2018-04-06T07:28:16.316Z,10.48
2018-04-06T07:29:16.328Z,10.49
2018-04-06T07:30:16.304Z,10.37
2018-04-06T07:31:16.307Z,10.07
2018-04-06T07:32:16.324Z,10.46
2018-04-06T07:33:16.306Z,10.48
2018-04-06T07:34:16.288Z,10.56
2018-04-06T07:35:16.297Z,10.48
2018-04-06T07:36:16.290Z,10.23
2018-04-06T07:37:16.275Z,10.34
2018-04-06T07:38:16.486Z,10.26
2018-04-06T07:39:16.287Z,10.48
2018-04-06T07:40:16.274Z,10.96
2018-04-06T07:41:16.265Z,11.32
2018-04-06T07:42:16.254Z,11.11
2018-04-06T07:43:16.266Z,10.90
2018-04-06T07:44:16.326Z,10.96
2018-04-06T07:45:16.467Z,10.40
2018-04-06T07:46:16.241Z,10.38
2018-04-06T07:47:16.254Z,10.49
2018-04-06T07:48:16.242Z,10.41
2018-04-06T07:49:16.260Z,10.57
2018-04-06T07:50:16.231Z,10.61
2018-04-06T07:51:16.242Z,10.41
2018-04-06T07:52:16.245Z,10.56
2018-04-06T07:53:16.254Z,10.74
2018-04-06T07:54:16.247Z,10.35
2018-04-06T07:55:16.231Z,10.22
2018-04-06T07:56:16.230Z,10.41
2018-04-06T07:57:16.420Z,10.59
2018-04-06T07:58:16.224Z,10.72
2018-04-06T07:59:16.226Z,10.92
2018-04-06T08:00:16.232Z,11.08
2018-04-06T08:01:16.206Z,11.44
2018-04-06T08:02:16.227Z,11.95
2018-04-06T08:03:16.219Z,12.35
2018-04-06T08:04:16.200Z,12.73
2018-04-06T08:05:16.216Z,12.67
2018-04-06T08:06:16.233Z,12.76
2018-04-06T08:07:16.211Z,12.42
2018-04-06T08:08:16.202Z,12.79
2018-04-06T08:09:16.201Z,12.68
2018-04-06T08:10:16.221Z,12.90
2018-04-06T08:11:16.220Z,12.97
2018-04-06T08:12:16.204Z,12.27
2018-04-06T08:13:16.192Z,12.73
2018-04-06T08:14:16.191Z,13.19
2018-04-06T08:15:16.215Z,12.80
2018-04-06T08:16:16.208Z,13.50
2018-04-06T08:17:16.217Z,14.12
2018-04-06T08:18:16.206Z,13.62
2018-04-06T08:19:16.217Z,14.14
2018-04-06T08:20:16.197Z,14.55
2018-04-06T08:21:16.206Z,15.00
2018-04-06T08:22:16.196Z,14.65
2018-04-06T08:23:16.207Z,14.94
2018-04-06T08:24:16.210Z,15.29
2018-04-06T08:25:16.397Z,14.81
2018-04-06T08:26:16.247Z,14.78
2018-04-06T08:27:16.196Z,14.55
2018-04-06T08:28:16.223Z,15.00
2018-04-06T08:29:16.201Z,14.53
2018-04-06T08:30:16.201Z,14.36
2018-04-06T08:31:16.206Z,13.77
2018-04-06T08:32:16.206Z,13.44
2018-04-06T08:33:16.209Z,13.39
2018-04-06T08:34:16.226Z,14.03
2018-04-06T08:35:16.209Z,14.11
2018-04-06T08:36:16.229Z,14.63
2018-04-06T08:37:16.224Z,14.65
2018-04-06T08:38:16.231Z,15.09
2018-04-06T08:39:16.255Z,15.03
2018-04-06T08:40:16.225Z,15.42
2018-04-06T08:41:16.224Z,15.33
2018-04-06T08:42:16.227Z,14.10
2018-04-06T08:43:16.231Z,14.05
2018-04-06T08:44:16.233Z,15.03
2018-04-06T08:45:16.247Z,14.68
2018-04-06T08:46:16.240Z,15.49
2018-04-06T08:47:16.242Z,15.55
2018-04-06T08:48:16.241Z,16.01
2018-04-06T08:49:16.256Z,16.36
2018-04-06T08:50:16.245Z,16.20
2018-04-06T08:51:16.248Z,15.27
2018-04-06T08:52:16.254Z,15.24
2018-04-06T08:53:16.263Z,15.91
2018-04-06T08:54:16.253Z,15.64
2018-04-06T08:55:16.258Z,15.52
2018-04-06T08:56:16.266Z,15.51
2018-04-06T08:57:16.267Z,16.15
2018-04-06T08:58:16.260Z,16.43
2018-04-06T08:59:16.268Z,15.72
2018-04-06T09:00:16.281Z,15.46
2018-04-06T09:01:16.254Z,15.62
2018-04-06T09:02:16.270Z,16.02
2018-04-06T09:03:16.276Z,14.89
2018-04-06T09:04:16.270Z,14.26
2018-04-06T09:05:16.266Z,13.62
2018-04-06T09:06:16.268Z,13.30
2018-04-06T09:07:16.262Z,13.78
2018-04-06T09:08:16.263Z,13.95
2018-04-06T09:09:16.261Z,13.72
2018-04-06T09:10:16.274Z,13.27
2018-04-06T09:11:16.249Z,13.09
2018-04-06T09:12:16.249Z,12.67
2018-04-06T09:13:16.257Z,12.42
2018-04-06T09:14:16.239Z,12.54
2018-04-06T09:15:16.241Z,12.53
2018-04-06T09:16:16.250Z,11.87
2018-04-06T09:17:16.246Z,11.95
2018-04-06T09:18:16.233Z,11.97
2018-04-06T09:19:16.231Z,11.97
2018-04-06T09:20:16.260Z,11.88
2018-04-06T09:21:16.285Z,11.45
2018-04-06T09:22:16.222Z,11.08
2018-04-06T09:23:16.219Z,11.15
2018-04-06T09:24:16.234Z,11.30
2018-04-06T09:25:16.224Z,11.44
2018-04-06T09:26:16.257Z,11.41
2018-04-06T09:27:16.218Z,11.37
2018-04-06T09:28:16.237Z,11.41
2018-04-06T09:29:16.218Z,11.60
2018-04-06T09:30:16.204Z,11.55
2018-04-06T09:31:16.217Z,11.66
2018-04-06T09:32:16.224Z,11.60
2018-04-06T09:33:16.203Z,11.75
2018-04-06T09:34:16.203Z,11.69
2018-04-06T09:35:16.183Z,11.78
2018-04-06T09:36:16.184Z,11.54
2018-04-06T09:37:16.178Z,11.59
2018-04-06T09:38:16.184Z,11.68
2018-04-06T09:39:16.172Z,11.87
2018-04-06T09:40:16.183Z,11.78
2018-04-06T09:41:16.182Z,11.68
2018-04-06T09:42:16.177Z,11.57
2018-04-06T09:43:16.160Z,11.44
2018-04-06T09:44:16.167Z,11.44
2018-04-06T09:45:16.153Z,11.70
2018-04-06T09:46:16.161Z,11.75
2018-04-06T09:47:16.143Z,11.88
2018-04-06T09:48:16.154Z,11.86
2018-04-06T09:49:16.142Z,11.81
2018-04-06T09:50:16.145Z,11.91
2018-04-06T09:51:16.127Z,11.94
2018-04-06T09:52:16.124Z,12.09
2018-04-06T09:53:16.133Z,12.21
2018-04-06T09:54:16.127Z,12.39
2018-04-06T09:55:16.126Z,12.49
2018-04-06T09:56:16.127Z,12.40
2018-04-06T09:57:16.124Z,12.25
2018-04-06T09:58:16.118Z,12.42
2018-04-06T09:59:16.098Z,12.55
2018-04-06T10:00:16.112Z,12.62
2018-04-06T10:01:16.090Z,12.65
2018-04-06T10:02:16.099Z,12.67
2018-04-06T10:03:16.090Z,12.64
2018-04-06T10:04:16.303Z,12.53
2018-04-06T10:05:16.082Z,12.28
2018-04-06T10:06:16.076Z,12.09
2018-04-06T10:07:16.082Z,12.21
2018-04-06T10:08:16.095Z,12.37
2018-04-06T10:09:16.076Z,12.36
2018-04-06T10:10:16.062Z,12.40
2018-04-06T10:11:16.059Z,12.53
2018-04-06T10:12:16.060Z,12.22
2018-04-06T10:13:16.064Z,12.32
2018-04-06T10:14:16.051Z,12.40
2018-04-06T10:15:16.046Z,12.55
2018-04-06T10:16:16.077Z,12.40
2018-04-06T10:17:16.037Z,12.50
2018-04-06T10:18:16.035Z,12.53
2018-04-06T10:19:16.041Z,12.43
2018-04-06T10:20:16.040Z,12.58
2018-04-06T10:21:16.047Z,12.57
2018-04-06T10:22:16.036Z,12.61
2018-04-06T10:23:16.018Z,12.73
2018-04-06T10:24:16.021Z,12.78
2018-04-06T10:25:16.008Z,12.79
2018-04-06T10:26:16.018Z,12.80
2018-04-06T10:27:16.003Z,12.87
2018-04-06T10:28:16.203Z,12.86
2018-04-06T10:29:16.010Z,12.85
2018-04-06T10:30:15.990Z,13.15
2018-04-06T10:31:15.988Z,12.87
2018-04-06T10:32:15.996Z,12.87
2018-04-06T10:33:15.990Z,12.97
2018-04-06T10:34:15.978Z,13.00
2018-04-06T10:35:15.976Z,12.91
2018-04-06T10:36:15.972Z,13.11
2018-04-06T10:37:15.974Z,13.37
2018-04-06T10:38:15.968Z,13.31
2018-04-06T10:39:15.963Z,13.30
2018-04-06T10:40:15.958Z,13.28
2018-04-06T10:41:15.962Z,13.42
2018-04-06T10:42:15.952Z,13.46
2018-04-06T10:43:15.965Z,13.39
2018-04-06T10:44:15.961Z,13.28
2018-04-06T10:45:15.941Z,13.37
2018-04-06T10:46:15.939Z,13.30
2018-04-06T10:47:15.945Z,13.35
2018-04-06T10:48:15.948Z,13.23
2018-04-06T10:49:15.926Z,13.27
2018-04-06T10:50:15.928Z,13.35
2018-04-06T10:51:15.947Z,13.50
2018-04-06T10:52:15.930Z,13.56
2018-04-06T10:53:15.914Z,13.59
2018-04-06T10:54:15.922Z,13.63
2018-04-06T10:55:15.935Z,13.81
2018-04-06T10:56:15.909Z,13.78
2018-04-06T10:57:15.901Z,13.78
2018-04-06T10:58:15.902Z,13.70
2018-04-06T10:59:15.920Z,13.67
2018-04-06T11:00:15.909Z,13.79
2018-04-06T11:01:15.922Z,13.60
2018-04-06T11:02:15.886Z,13.42
2018-04-06T11:03:15.902Z,13.46
2018-04-06T11:04:15.887Z,13.63
2018-04-06T11:05:15.901Z,13.78
2018-04-06T11:06:15.887Z,13.81
2018-04-06T11:07:15.889Z,13.68
2018-04-06T11:08:15.868Z,13.85
2018-04-06T11:09:15.875Z,13.60
2018-04-06T11:10:15.863Z,13.71
2018-04-06T11:11:15.875Z,13.90
2018-04-06T11:12:15.855Z,13.93
2018-04-06T11:13:15.851Z,13.89
2018-04-06T11:14:15.849Z,13.99
2018-04-06T11:15:15.847Z,14.17
2018-04-06T11:16:15.845Z,14.15
2018-04-06T11:17:15.838Z,14.15
2018-04-06T11:18:15.836Z,14.17
2018-04-06T11:19:15.835Z,14.22
2018-04-06T11:20:15.831Z,14.18
2018-04-06T11:21:15.842Z,14.15
2018-04-06T11:22:15.826Z,14.15
2018-04-06T11:23:15.822Z,14.17
2018-04-06T11:24:15.832Z,14.15
2018-04-06T11:25:15.827Z,14.12
2018-04-06T11:26:15.812Z,14.20
2018-04-06T11:27:15.822Z,14.36
2018-04-06T11:28:15.823Z,14.22
2018-04-06T11:29:15.812Z,14.03
2018-04-06T11:30:15.818Z,13.99
2018-04-06T11:31:15.827Z,13.87
2018-04-06T11:32:15.797Z,14.03
2018-04-06T11:33:15.805Z,14.00
2018-04-06T11:34:15.790Z,14.12
2018-04-06T11:35:15.786Z,14.20
2018-04-06T11:36:15.782Z,14.15
2018-04-06T11:37:15.782Z,14.07
2018-04-06T11:38:15.781Z,13.97
2018-04-06T11:39:15.775Z,13.99
2018-04-06T11:40:15.790Z,14.12
2018-04-06T11:41:15.784Z,14.22
2018-04-06T11:42:15.781Z,14.17
2018-04-06T11:43:15.776Z,14.15
2018-04-06T11:44:15.778Z,13.96
2018-04-06T11:45:15.763Z,14.05
2018-04-06T11:46:15.777Z,13.99
2018-04-06T11:47:15.778Z,14.07
2018-04-06T11:48:15.976Z,14.17
2018-04-06T11:49:15.760Z,14.14
2018-04-06T11:50:15.757Z,14.20
2018-04-06T11:51:15.758Z,14.26
2018-04-06T11:52:15.756Z,14.33
2018-04-06T11:53:15.738Z,14.32
2018-04-06T11:54:15.747Z,14.20
2018-04-06T11:55:15.753Z,14.18
2018-04-06T11:56:15.740Z,14.05
2018-04-06T11:57:15.724Z,14.03
2018-04-06T11:58:15.731Z,13.97
2018-04-06T11:59:15.732Z,14.03
2018-04-06T12:00:15.731Z,14.03
2018-04-06T12:01:15.941Z,14.00
2018-04-06T12:02:15.725Z,14.00
2018-04-06T12:03:15.719Z,14.04
2018-04-06T12:04:15.737Z,13.90
2018-04-06T12:05:15.702Z,13.97
2018-04-06T12:06:15.699Z,13.99
2018-04-06T12:07:15.698Z,13.97
2018-04-06T12:08:15.950Z,14.12
2018-04-06T12:09:15.909Z,14.05
2018-04-06T12:10:15.703Z,14.20
2018-04-06T12:11:15.685Z,14.17
2018-04-06T12:12:15.993Z,14.17
2018-04-06T12:13:15.679Z,14.29
2018-04-06T12:14:15.675Z,14.40
2018-04-06T12:15:15.877Z,14.45
2018-04-06T12:16:15.875Z,14.32
2018-04-06T12:17:15.871Z,14.36
2018-04-06T12:18:15.675Z,14.22
2018-04-06T12:19:15.868Z,14.29
2018-04-06T12:20:15.664Z,14.29
2018-04-06T12:21:15.659Z,14.18
2018-04-06T12:22:15.660Z,14.28
2018-04-06T12:23:15.683Z,14.37
2018-04-06T12:24:15.678Z,14.50
2018-04-06T12:25:15.702Z,14.72
2018-04-06T12:26:15.643Z,14.55
2018-04-06T12:27:15.641Z,14.45
2018-04-06T12:28:15.639Z,14.59
2018-04-06T12:29:15.848Z,14.69
2018-04-06T12:30:15.632Z,14.62
2018-04-06T12:31:15.630Z,14.62
2018-04-06T12:32:15.636Z,14.53
2018-04-06T12:33:15.634Z,14.50
2018-04-06T12:34:15.636Z,14.62
2018-04-06T12:35:15.822Z,14.79
2018-04-06T12:36:15.634Z,14.65
2018-04-06T12:37:15.613Z,14.69
2018-04-06T12:38:15.609Z,14.69
2018-04-06T12:39:15.608Z,14.63
2018-04-06T12:40:15.628Z,14.68
2018-04-06T12:41:15.606Z,14.66
2018-04-06T12:42:15.610Z,14.62
2018-04-06T12:43:15.607Z,14.50
2018-04-06T12:44:15.594Z,14.63
2018-04-06T12:45:15.618Z,14.63
2018-04-06T12:46:15.590Z,14.68
2018-04-06T12:47:15.587Z,14.73
2018-04-06T12:48:15.599Z,14.65
2018-04-06T12:49:15.581Z,14.65
2018-04-06T12:50:15.609Z,14.62
2018-04-06T12:51:15.584Z,14.78
2018-04-06T12:52:15.582Z,14.78
2018-04-06T12:53:15.569Z,14.63
2018-04-06T12:54:15.579Z,14.63
2018-04-06T12:55:15.566Z,14.77
2018-04-06T12:56:15.584Z,14.91
2018-04-06T12:57:15.560Z,14.89
2018-04-06T12:58:15.562Z,14.78
2018-04-06T12:59:15.566Z,14.92
2018-04-06T13:00:15.606Z,15.06
2018-04-06T13:01:15.560Z,15.18
2018-04-06T13:02:15.549Z,15.10
2018-04-06T13:03:15.556Z,15.15
2018-04-06T13:04:15.553Z,15.17
2018-04-06T13:05:15.552Z,15.00
2018-04-06T13:06:15.538Z,14.96
2018-04-06T13:07:15.535Z,14.99